Time;durP1;ratioP1;P1;durP2;ratioP2;P2;SDS_P1;SDS_P2;PMS_P1;PMS_P2;Temp;Humidity;BMP_temperature;BMP_pressure;BME280_temperature;BME280_humidity;BME280_pressure;Samples;Min_cycle;Max_cycle;Signal;HPM_P1;HPM_P2
2022/12/14 00:01:19;;;;;;;;;;;;;;;-0.82;61.22;97038.41;7386764;19;19914;-87
2022/12/14 00:03:48;;;;;;;;;;;;;;;-0.75;60.64;97033.59;7388682;19;19947;-87
2022/12/14 00:06:25;;;;;;;;;;;;;;;-0.65;61.83;97036.31;7390123;19;19926;-87
2022/12/14 00:08:52;;;;;;;;;;;;;;;-0.79;61.29;97022.63;7385047;19;20452;-87
2022/12/14 00:11:20;;;;;;;;;;;;;;;-0.72;60.47;97012.56;7385565;19;19947;-87
2022/12/14 00:13:49;;;;;;;;;;;;;;;-0.82;60.71;97011.63;7376513;19;19939;-87
2022/12/14 00:16:16;;;;;;;;;;;;;;;-0.86;60.32;97003.25;7373576;19;20393;-87
2022/12/14 00:18:43;;;;;;;;;;;;;;;-0.96;60.43;96989.34;7376375;19;20393;-87
2022/12/14 00:21:11;;;;;;;;;;;;;;;-0.76;61.40;97001.59;7373187;19;19923;-88
2022/12/14 00:23:38;;;;;;;;;;;;;;;-0.91;63.99;96993.22;7378057;19;19926;-87
2022/12/14 00:26:12;;;;;;;;;;;;;;;-0.72;62.94;97002.19;7374165;19;21949;-87
2022/12/14 00:28:39;;;;;;;;;;;;;;;-0.61;61.84;96998.75;7368712;19;19952;-87
2022/12/14 00:31:05;;;;;;;;;;;;;;;-0.74;62.63;96993.69;7371270;19;19918;-87
2022/12/14 00:33:32;;;;;;;;;;;;;;;-0.64;61.98;96989.41;7378020;19;19936;-89
2022/12/14 00:35:59;;;;;;;;;;;;;;;-0.79;62.98;96969.84;7375334;19;19959;-88
2022/12/14 00:38:25;;;;;;;;;;;;;;;-0.62;62.16;96960.75;7376848;19;19915;-85
2022/12/14 00:40:53;;;;;;;;;;;;;;;-0.72;61.08;96968.44;7374563;19;19990;-86
2022/12/14 00:43:21;;;;;;;;;;;;;;;-0.73;61.34;96964.19;7384625;19;19961;-85
2022/12/14 00:45:47;;;;;;;;;;;;;;;-0.75;63.13;96966.06;7370722;19;19933;-85
2022/12/14 00:48:14;;;;;;;;;;;;;;;-0.64;62.67;96954.84;7377639;19;20253;-85
2022/12/14 00:50:41;;;;;;;;;;;;;;;-0.62;61.91;96953.78;7377367;19;19921;-84
2022/12/14 00:53:14;;;;;;;;;;;;;;;-0.54;62.81;96958.38;7377834;19;19919;-83
2022/12/14 00:55:41;;;;;;;;;;;;;;;-0.68;60.53;96969.84;7376210;19;19918;-84
2022/12/14 00:58:09;;;;;;;;;;;;;;;-0.43;60.03;96975.69;7379856;19;19927;-84
2022/12/14 01:00:36;;;;;;;;;;;;;;;-0.42;60.98;96978.19;7381303;19;19919;-85
2022/12/14 01:03:03;;;;;;;;;;;;;;;-0.47;61.13;96970.75;7384128;19;19922;-84
2022/12/14 01:05:30;;;;;;;;;;;;;;;-0.55;61.03;96962.75;7382575;19;20353;-85
2022/12/14 01:07:56;;;;;;;;;;;;;;;-0.46;60.41;96963.78;7389106;19;19911;-84
2022/12/14 01:10:23;;;;;;;;;;;;;;;-0.48;62.40;96950.91;7389525;19;19922;-84
2022/12/14 01:12:49;;;;;;;;;;;;;;;-0.67;62.98;96942.91;7384069;19;19926;-85
2022/12/14 01:15:16;;;;;;;;;;;;;;;-0.56;61.44;96949.88;7384860;19;20239;-85
2022/12/14 01:17:43;;;;;;;;;;;;;;;-0.54;61.79;96968.75;7390021;19;19927;-84
2022/12/14 01:20:09;;;;;;;;;;;;;;;-0.54;61.90;96972.19;7387178;19;19923;-85
2022/12/14 01:22:36;;;;;;;;;;;;;;;-0.64;62.00;96973.03;7384776;19;19915;-86
2022/12/14 01:25:03;;;;;;;;;;;;;;;-0.59;61.46;96965.69;7377702;19;19922;-84
2022/12/14 01:27:30;;;;;;;;;;;;;;;-0.82;61.77;96973.50;7382423;19;19960;-85
2022/12/14 01:29:56;;;;;;;;;;;;;;;-0.79;61.79;96964.66;7388038;19;19929;-84
2022/12/14 01:32:23;;;;;;;;;;;;;;;-0.49;61.64;96964.03;7389166;19;20570;-84
2022/12/14 01:34:50;;;;;;;;;;;;;;;-0.72;63.89;96968.44;7384629;19;19919;-85
2022/12/14 01:37:16;;;;;;;;;;;;;;;-0.87;63.45;96965.25;7384369;19;19953;-85
2022/12/14 01:39:43;;;;;;;;;;;;;;;-0.67;64.70;96963.69;7385220;19;20269;-84
2022/12/14 01:42:10;;;;;;;;;;;;;;;-0.56;64.03;96961.06;7390799;19;19923;-85
2022/12/14 01:44:37;;;;;;;;;;;;;;;-0.63;63.17;96967.72;7385720;19;19962;-85
2022/12/14 01:47:16;;;;;;;;;;;;;;;-0.65;63.60;96966.19;7393780;19;19929;-85
2022/12/14 01:49:42;;;;;;;;;;;;;;;-0.49;61.84;96975.22;7408014;19;19922;-86
2022/12/14 01:52:14;;;;;;;;;;;;;;;-0.57;63.49;96964.63;7405938;19;19919;-86
2022/12/14 01:54:43;;;;;;;;;;;;;;;-0.57;64.67;96959.44;7397202;19;19948;-85
2022/12/14 01:57:14;;;;;;;;;;;;;;;-0.79;65.60;96952.50;7380986;19;19914;-85
2022/12/14 01:59:41;;;;;;;;;;;;;;;-0.68;65.13;96939.50;7386131;19;19919;-85
2022/12/14 02:02:07;;;;;;;;;;;;;;;-0.72;65.18;96934.66;7387750;19;20925;-84
2022/12/14 02:04:34;;;;;;;;;;;;;;;-0.59;63.04;96924.94;7381482;19;20270;-85
2022/12/14 02:07:01;;;;;;;;;;;;;;;-0.75;63.49;96919.34;7385424;19;19923;-85
2022/12/14 02:09:29;;;;;;;;;;;;;;;-0.49;63.29;96919.84;7386430;19;19947;-84
2022/12/14 02:11:57;;;;;;;;;;;;;;;-0.62;63.99;96930.41;7379290;19;19953;-85
2022/12/14 02:14:24;;;;;;;;;;;;;;;-0.45;63.88;96926.44;7379000;19;19914;-84
2022/12/14 02:16:51;;;;;;;;;;;;;;;-0.59;65.71;96924.13;7383417;19;19927;-85
2022/12/14 02:19:17;;;;;;;;;;;;;;;-0.76;64.06;96922.88;7382636;19;19960;-86
2022/12/14 02:21:53;;;;;;;;;;;;;;;-0.80;64.99;96922.28;7385166;19;19923;-85
2022/12/14 02:24:19;;;;;;;;;;;;;;;-0.66;64.45;96918.59;7387888;19;20257;-85
2022/12/14 02:26:49;;;;;;;;;;;;;;;-0.57;63.97;96923.06;7381563;19;20955;-84
2022/12/14 02:29:34;;;;;;;;;;;;;;;-0.74;64.74;96916.63;7377759;19;19918;-85
2022/12/14 02:32:09;;;;;;;;;;;;;;;-0.74;64.43;96906.25;7385563;19;19927;-85
2022/12/14 02:34:49;;;;;;;;;;;;;;;-0.68;64.24;96910.13;7386696;19;19922;-85
2022/12/14 02:37:24;;;;;;;;;;;;;;;-0.60;63.72;96899.94;7383252;19;19915;-85
2022/12/14 02:40:12;;;;;;;;;;;;;;;-0.82;65.27;96897.38;7380539;19;20535;-84
2022/12/14 02:42:49;;;;;;;;;;;;;;;-0.63;64.43;96887.19;7382591;19;19918;-84
2022/12/14 02:45:19;;;;;;;;;;;;;;;-0.53;63.36;96898.47;7379543;19;19915;-85
2022/12/14 02:47:49;;;;;;;;;;;;;;;-0.64;63.99;96905.50;7384168;19;19956;-86
2022/12/14 02:50:24;;;;;;;;;;;;;;;-0.57;63.78;96901.47;7385142;19;19918;-86
2022/12/14 02:52:50;;;;;;;;;;;;;;;-0.51;63.64;96906.97;7381961;19;19955;-86
2022/12/14 02:55:29;;;;;;;;;;;;;;;-0.63;65.48;96896.75;7386370;19;19926;-86
2022/12/14 02:57:56;;;;;;;;;;;;;;;-0.64;65.76;96890.72;7385789;19;19926;-86
2022/12/14 03:00:22;;;;;;;;;;;;;;;-0.65;63.88;96886.50;7384931;19;19923;-86
2022/12/14 03:02:49;;;;;;;;;;;;;;;-0.65;64.76;96885.69;7377720;19;19918;-86
2022/12/14 03:05:15;;;;;;;;;;;;;;;-0.50;65.37;96887.03;7384432;19;19934;-86
2022/12/14 03:07:52;;;;;;;;;;;;;;;-0.58;65.62;96886.81;7385107;19;19918;-86
2022/12/14 03:10:20;;;;;;;;;;;;;;;-0.51;64.82;96870.63;7384652;19;19926;-86
2022/12/14 03:12:48;;;;;;;;;;;;;;;-0.54;64.49;96875.25;7384492;19;20298;-86
2022/12/14 03:15:15;;;;;;;;;;;;;;;-0.51;64.35;96873.22;7380226;19;20250;-86
2022/12/14 03:17:41;;;;;;;;;;;;;;;-0.51;63.55;96870.63;7384050;19;19960;-86
2022/12/14 03:20:19;;;;;;;;;;;;;;;-0.60;64.71;96881.75;7379444;19;19927;-86
2022/12/14 03:22:54;;;;;;;;;;;;;;;-0.57;64.17;96876.31;7386216;19;20666;-85
2022/12/14 03:25:23;;;;;;;;;;;;;;;-0.46;64.70;96862.44;7382050;19;19926;-87
2022/12/14 03:27:50;;;;;;;;;;;;;;;-0.60;65.20;96866.19;7380202;19;19943;-87
2022/12/14 03:30:17;;;;;;;;;;;;;;;-0.65;65.03;96868.31;7381555;19;19942;-86
2022/12/14 03:33:05;;;;;;;;;;;;;;;-0.60;64.87;96860.16;7379845;19;20289;-86
2022/12/14 03:35:33;;;;;;;;;;;;;;;-0.72;66.03;96856.75;7374506;19;19992;-86
2022/12/14 03:38:06;;;;;;;;;;;;;;;-0.73;65.43;96845.56;7376650;19;19915;-86
2022/12/14 03:40:33;;;;;;;;;;;;;;;-0.52;65.19;96848.19;7380850;19;20402;-86
2022/12/14 03:43:06;;;;;;;;;;;;;;;-0.56;64.95;96851.16;7382538;19;19946;-86
2022/12/14 03:45:41;;;;;;;;;;;;;;;-0.52;64.01;96850.78;7377362;19;19946;-86
2022/12/14 03:48:26;;;;;;;;;;;;;;;-0.63;65.58;96845.66;7380714;19;20762;-86
2022/12/14 03:50:57;;;;;;;;;;;;;;;-0.53;64.45;96836.13;7380222;19;19930;-86
2022/12/14 03:53:26;;;;;;;;;;;;;;;-0.60;63.49;96840.19;7376415;19;20357;-86
2022/12/14 03:55:56;;;;;;;;;;;;;;;-0.46;64.39;96831.28;7380149;19;19926;-86
2022/12/14 03:58:27;;;;;;;;;;;;;;;-0.62;65.53;96820.50;7380621;19;19929;-86
2022/12/14 04:01:13;;;;;;;;;;;;;;;-0.54;64.08;96808.53;7383211;19;19951;-86
2022/12/14 04:03:39;;;;;;;;;;;;;;;-0.44;63.98;96816.41;7381469;19;19922;-86
2022/12/14 04:06:08;;;;;;;;;;;;;;;-0.42;64.84;96813.66;7382939;19;19942;-86
2022/12/14 04:08:37;;;;;;;;;;;;;;;-0.60;65.36;96810.81;7377562;19;19954;-87
2022/12/14 04:19:33;;;;;;;;;;;;;;;-0.77;65.47;96800.00;7379665;19;19918;-86
2022/12/14 04:22:03;;;;;;;;;;;;;;;-0.83;66.04;96787.50;7379669;19;19926;-86
2022/12/14 04:27:20;;;;;;;;;;;;;;;-0.81;66.87;96764.84;7376923;19;19926;-86
2022/12/14 04:29:56;;;;;;;;;;;;;;;-0.75;67.38;96774.72;7383045;19;19922;-86
2022/12/14 04:32:35;;;;;;;;;;;;;;;-0.71;66.19;96777.88;7383320;19;19935;-86
2022/12/14 04:35:08;;;;;;;;;;;;;;;-0.61;65.89;96767.59;7379288;19;19964;-86
2022/12/14 04:37:36;;;;;;;;;;;;;;;-0.41;65.00;96771.97;7387560;19;21975;-87
2022/12/14 04:40:10;;;;;;;;;;;;;;;-0.47;64.92;96767.28;7386032;19;19926;-86
2022/12/14 04:42:47;;;;;;;;;;;;;;;-0.63;65.26;96767.72;7382463;19;19910;-86
2022/12/14 04:45:16;;;;;;;;;;;;;;;-0.48;66.21;96758.66;7378715;19;19918;-85
2022/12/14 04:47:44;;;;;;;;;;;;;;;-0.54;66.14;96769.56;7385359;19;20304;-86
2022/12/14 04:50:16;;;;;;;;;;;;;;;-0.65;66.61;96771.41;7387023;19;19919;-86
2022/12/14 04:52:44;;;;;;;;;;;;;;;-0.64;66.69;96771.25;7388116;19;19915;-86
2022/12/14 04:55:13;;;;;;;;;;;;;;;-0.61;67.50;96770.19;7388812;19;20452;-86
2022/12/14 04:57:47;;;;;;;;;;;;;;;-0.65;66.79;96769.63;7384045;19;19922;-86
2022/12/14 05:00:14;;;;;;;;;;;;;;;-0.47;67.93;96767.28;7381770;19;19915;-86
2022/12/14 05:02:41;;;;;;;;;;;;;;;-0.37;66.32;96763.00;7385532;19;19919;-85
2022/12/14 05:05:13;;;;;;;;;;;;;;;-0.54;67.41;96766.97;7388543;19;19978;-86
2022/12/14 05:07:40;;;;;;;;;;;;;;;-0.41;67.07;96766.78;7391287;19;19919;-86
2022/12/14 05:10:10;;;;;;;;;;;;;;;-0.41;67.37;96746.00;7386377;19;19939;-86
2022/12/14 05:12:42;;;;;;;;;;;;;;;-0.40;66.85;96747.63;7386314;19;19987;-86
2022/12/14 05:15:22;;;;;;;;;;;;;;;-0.51;67.22;96743.31;7382069;19;19955;-86
2022/12/14 05:17:49;;;;;;;;;;;;;;;-0.69;67.39;96750.84;7389037;19;20296;-87
2022/12/14 05:20:19;;;;;;;;;;;;;;;-0.46;66.77;96751.56;7388381;19;21562;-87
2022/12/14 05:22:46;;;;;;;;;;;;;;;-0.53;66.92;96747.00;7395469;19;20599;-87
2022/12/14 05:25:13;;;;;;;;;;;;;;;-0.50;66.93;96749.34;7407588;19;19919;-87
2022/12/14 05:27:39;;;;;;;;;;;;;;;-0.44;66.83;96735.84;7403749;19;19919;-87
2022/12/14 05:30:06;;;;;;;;;;;;;;;-0.56;67.45;96726.47;7402695;19;20313;-87
2022/12/14 05:32:33;;;;;;;;;;;;;;;-0.63;67.87;96725.31;7382831;19;20377;-87
2022/12/14 05:35:00;;;;;;;;;;;;;;;-0.37;68.37;96733.56;7384332;19;20595;-86
2022/12/14 05:37:27;;;;;;;;;;;;;;;-0.23;66.19;96734.06;7387101;19;19915;-88
2022/12/14 05:39:53;;;;;;;;;;;;;;;-0.33;65.57;96720.19;7381695;19;19949;-84
2022/12/14 05:42:20;;;;;;;;;;;;;;;-0.26;65.71;96717.91;7384188;19;19927;-85
2022/12/14 05:44:46;;;;;;;;;;;;;;;-0.19;66.33;96718.19;7388836;19;19923;-85
2022/12/14 05:47:13;;;;;;;;;;;;;;;-0.08;65.60;96720.72;7381975;19;19918;-85
2022/12/14 05:49:40;;;;;;;;;;;;;;;-0.24;65.61;96726.38;7374669;19;19922;-86
2022/12/14 05:52:10;;;;;;;;;;;;;;;-0.28;65.21;96727.59;7384276;19;20176;-88
2022/12/14 05:54:36;;;;;;;;;;;;;;;-0.38;65.34;96719.75;7381608;19;19929;-85
2022/12/14 05:57:04;;;;;;;;;;;;;;;-0.41;65.64;96711.41;7384622;19;19921;-86
2022/12/14 05:59:31;;;;;;;;;;;;;;;-0.34;65.45;96702.97;7378004;19;19929;-85
2022/12/14 06:01:58;;;;;;;;;;;;;;;-0.25;66.36;96696.16;7386160;19;19918;-84
2022/12/14 06:04:24;;;;;;;;;;;;;;;-0.29;65.62;96690.41;7380484;19;20424;-85
2022/12/14 06:06:51;;;;;;;;;;;;;;;-0.38;65.78;96683.38;7380404;19;19926;-86
2022/12/14 06:09:18;;;;;;;;;;;;;;;-0.28;66.73;96684.25;7384427;19;19925;-85
2022/12/14 06:11:44;;;;;;;;;;;;;;;-0.27;66.55;96677.28;7387256;19;19914;-82
2022/12/14 06:14:11;;;;;;;;;;;;;;;-0.17;66.55;96691.13;7382325;19;20021;-84
2022/12/14 06:16:41;;;;;;;;;;;;;;;-0.14;65.73;96703.03;7389808;19;19930;-85
2022/12/14 06:19:08;;;;;;;;;;;;;;;-0.09;65.68;96700.88;7387535;19;19915;-86
2022/12/14 06:21:35;;;;;;;;;;;;;;;-0.10;65.62;96694.03;7382338;19;19947;-83
2022/12/14 06:24:02;;;;;;;;;;;;;;;-0.03;65.78;96697.75;7374022;19;19955;-83
2022/12/14 06:26:29;;;;;;;;;;;;;;;-0.19;66.59;96687.84;7375126;19;20669;-85
2022/12/14 06:28:56;;;;;;;;;;;;;;;-0.09;66.10;96688.69;7384748;19;19933;-84
2022/12/14 06:31:24;;;;;;;;;;;;;;;-0.25;66.75;96698.75;7386622;19;19919;-85
2022/12/14 06:33:52;;;;;;;;;;;;;;;-0.25;66.32;96694.38;7381479;19;19919;-85
2022/12/14 06:36:21;;;;;;;;;;;;;;;-0.24;66.68;96682.19;7375839;19;19922;-85
2022/12/14 06:38:48;;;;;;;;;;;;;;;-0.28;66.67;96686.03;7383123;19;19914;-84
2022/12/14 06:41:15;;;;;;;;;;;;;;;-0.17;66.50;96677.31;7382477;19;19910;-84
2022/12/14 06:43:42;;;;;;;;;;;;;;;-0.23;66.77;96678.66;7380511;19;19918;-85
2022/12/14 06:46:09;;;;;;;;;;;;;;;-0.20;67.34;96683.59;7386721;19;19915;-83
2022/12/14 06:48:41;;;;;;;;;;;;;;;-0.30;68.60;96674.94;7389771;19;19915;-83
2022/12/14 06:51:07;;;;;;;;;;;;;;;-0.24;69.08;96672.66;7384480;19;19950;-85
2022/12/14 06:53:34;;;;;;;;;;;;;;;-0.38;69.18;96677.34;7391523;19;20289;-85
2022/12/14 06:56:07;;;;;;;;;;;;;;;-0.48;70.33;96659.94;7385420;19;19918;-84
2022/12/14 06:58:34;;;;;;;;;;;;;;;-0.41;70.31;96655.06;7382465;19;19935;-86
2022/12/14 07:01:02;;;;;;;;;;;;;;;-0.40;70.42;96654.09;7389993;19;19979;-84
2022/12/14 07:03:28;;;;;;;;;;;;;;;-0.31;70.51;96648.13;7387068;19;19946;-86
2022/12/14 07:05:56;;;;;;;;;;;;;;;-0.37;70.06;96647.81;7386957;19;20360;-84
2022/12/14 07:08:23;;;;;;;;;;;;;;;-0.37;71.00;96648.66;7389441;19;19926;-84
2022/12/14 07:10:49;;;;;;;;;;;;;;;-0.22;70.52;96636.94;7386734;19;20227;-84
2022/12/14 07:13:16;;;;;;;;;;;;;;;-0.43;71.70;96636.16;7383007;19;19918;-84
2022/12/14 07:15:43;;;;;;;;;;;;;;;-0.18;70.72;96632.31;7384480;19;19933;-83
2022/12/14 07:18:10;;;;;;;;;;;;;;;-0.13;70.49;96630.16;7388340;19;19964;-84
2022/12/14 07:20:36;;;;;;;;;;;;;;;-0.39;71.17;96610.78;7386809;19;19927;-84
2022/12/14 07:23:03;;;;;;;;;;;;;;;-0.24;71.48;96625.88;7384367;19;19932;-85
2022/12/14 07:25:29;;;;;;;;;;;;;;;-0.17;70.68;96618.34;7386985;19;20253;-85
2022/12/14 07:27:56;;;;;;;;;;;;;;;-0.13;70.62;96616.31;7385674;19;19942;-85
2022/12/14 07:30:22;;;;;;;;;;;;;;;-0.36;71.40;96600.94;7377992;19;19943;-84
2022/12/14 07:32:49;;;;;;;;;;;;;;;-0.18;70.78;96602.91;7388299;19;19919;-83
2022/12/14 07:35:16;;;;;;;;;;;;;;;-0.23;70.62;96609.31;7387598;19;20121;-86
2022/12/14 07:37:42;;;;;;;;;;;;;;;-0.40;70.99;96622.91;7385835;19;19918;-84
2022/12/14 07:40:14;;;;;;;;;;;;;;;-0.26;70.88;96629.56;7385764;19;19944;-84
2022/12/14 07:42:41;;;;;;;;;;;;;;;-0.11;70.63;96624.81;7385819;19;19927;-84
2022/12/14 07:45:08;;;;;;;;;;;;;;;-0.25;71.14;96618.19;7383311;19;19922;-83
2022/12/14 07:47:35;;;;;;;;;;;;;;;-0.18;71.04;96610.72;7382398;19;19919;-85
2022/12/14 07:50:01;;;;;;;;;;;;;;;-0.11;70.85;96615.22;7386098;19;19914;-83
2022/12/14 07:52:30;;;;;;;;;;;;;;;-0.22;71.52;96603.16;7377574;19;20278;-83
2022/12/14 07:55:03;;;;;;;;;;;;;;;-0.31;72.28;96611.75;7382877;19;19915;-84
2022/12/14 07:57:30;;;;;;;;;;;;;;;-0.20;72.54;96597.84;7383999;19;19915;-85
2022/12/14 07:59:57;;;;;;;;;;;;;;;-0.11;71.92;96591.81;7384173;19;20714;-83
2022/12/14 08:02:23;;;;;;;;;;;;;;;0.10;71.46;96591.72;7381607;19;19918;-85
2022/12/14 08:04:50;;;;;;;;;;;;;;;0.19;71.08;96577.94;7383646;19;19915;-84
2022/12/14 08:07:17;;;;;;;;;;;;;;;0.21;70.61;96573.44;7377755;19;19923;-85
2022/12/14 08:09:44;;;;;;;;;;;;;;;0.19;71.06;96579.72;7381555;19;19918;-85
2022/12/14 08:12:10;;;;;;;;;;;;;;;0.17;71.04;96577.25;7371896;19;19948;-84
2022/12/14 08:14:37;;;;;;;;;;;;;;;0.27;70.34;96579.06;7380930;19;19915;-84
2022/12/14 08:17:05;;;;;;;;;;;;;;;0.12;70.34;96582.03;7387392;19;19918;-90
2022/12/14 08:19:32;;;;;;;;;;;;;;;0.30;71.09;96584.78;7377922;19;19933;-86
2022/12/14 08:21:58;;;;;;;;;;;;;;;0.44;70.17;96586.16;7380291;19;19936;-86
2022/12/14 08:24:25;;;;;;;;;;;;;;;0.29;70.54;96588.38;7387228;19;19918;-84
2022/12/14 08:26:51;;;;;;;;;;;;;;;0.34;69.67;96587.94;7382924;19;20629;-86
2022/12/14 08:29:18;;;;;;;;;;;;;;;0.46;69.96;96583.44;7380508;19;20294;-84
2022/12/14 08:31:45;;;;;;;;;;;;;;;0.40;69.57;96575.22;7383907;19;19957;-85
2022/12/14 08:34:11;;;;;;;;;;;;;;;0.46;69.87;96588.63;7385400;19;20426;-85
2022/12/14 08:36:38;;;;;;;;;;;;;;;0.44;70.17;96580.97;7382288;19;20295;-84
2022/12/14 08:39:05;;;;;;;;;;;;;;;0.39;70.71;96581.34;7383615;19;20354;-86
2022/12/14 08:41:32;;;;;;;;;;;;;;;0.65;70.20;96580.81;7385128;19;19923;-85
2022/12/14 08:43:59;;;;;;;;;;;;;;;0.69;69.80;96578.78;7386688;19;19919;-85
2022/12/14 08:46:26;;;;;;;;;;;;;;;0.44;71.32;96581.78;7385392;19;20408;-85
2022/12/14 08:48:53;;;;;;;;;;;;;;;0.44;71.65;96581.78;7381075;19;19919;-85
2022/12/14 08:51:21;;;;;;;;;;;;;;;0.70;70.87;96599.44;7380447;19;19927;-85
2022/12/14 08:53:47;;;;;;;;;;;;;;;0.73;70.25;96599.16;7380990;19;19919;-84
2022/12/14 08:56:16;;;;;;;;;;;;;;;0.61;71.06;96592.47;7384312;19;20616;-82
2022/12/14 08:58:42;;;;;;;;;;;;;;;0.71;71.27;96588.09;7380864;19;19926;-85
2022/12/14 09:01:13;;;;;;;;;;;;;;;0.62;71.67;96592.31;7382917;19;20036;-85
2022/12/14 09:03:40;;;;;;;;;;;;;;;0.68;72.24;96588.34;7392858;19;19947;-86
2022/12/14 09:06:07;;;;;;;;;;;;;;;0.68;72.20;96590.94;7401315;19;19915;-86
2022/12/14 09:08:34;;;;;;;;;;;;;;;0.72;71.93;96591.50;7398596;19;19926;-86
2022/12/14 09:11:01;;;;;;;;;;;;;;;0.76;72.06;96590.25;7390009;19;19915;-86
2022/12/14 09:13:28;;;;;;;;;;;;;;;0.91;71.91;96590.66;7379989;19;19923;-86
2022/12/14 09:15:56;;;;;;;;;;;;;;;0.98;72.27;96595.19;7382742;19;19934;-86
2022/12/14 09:18:23;;;;;;;;;;;;;;;0.94;72.38;96585.19;7384745;19;19963;-86
2022/12/14 09:20:53;;;;;;;;;;;;;;;1.02;71.82;96596.53;7380675;19;19910;-85
2022/12/14 09:23:20;;;;;;;;;;;;;;;0.95;72.88;96584.19;7379123;19;20568;-86
2022/12/14 09:25:46;;;;;;;;;;;;;;;0.74;72.49;96581.75;7387698;19;19930;-87
2022/12/14 09:28:13;;;;;;;;;;;;;;;0.70;74.17;96568.22;7385255;19;20282;-86
2022/12/14 09:30:40;;;;;;;;;;;;;;;0.81;73.35;96567.25;7388419;19;20583;-85
2022/12/14 09:33:06;;;;;;;;;;;;;;;0.80;74.50;96557.81;7388471;19;20386;-86
2022/12/14 09:35:33;;;;;;;;;;;;;;;0.92;74.04;96558.44;7386088;19;20417;-84
2022/12/14 09:37:59;;;;;;;;;;;;;;;0.89;73.90;96549.13;7387190;19;19919;-83
2022/12/14 09:40:26;;;;;;;;;;;;;;;0.86;73.70;96554.63;7387761;19;19933;-84
2022/12/14 09:42:54;;;;;;;;;;;;;;;0.88;73.88;96550.91;7383321;19;19925;-85
2022/12/14 09:45:25;;;;;;;;;;;;;;;0.88;73.95;96556.13;7386823;19;19934;-84
2022/12/14 09:47:56;;;;;;;;;;;;;;;0.96;73.33;96544.19;7387989;19;19919;-84
2022/12/14 09:50:24;;;;;;;;;;;;;;;0.96;72.48;96546.81;7384980;19;19971;-85
2022/12/14 09:52:51;;;;;;;;;;;;;;;1.08;72.38;96549.09;7388476;19;19922;-84
2022/12/14 09:55:37;;;;;;;;;;;;;;;0.80;73.50;96556.00;7388218;19;19919;-85
2022/12/14 09:58:04;;;;;;;;;;;;;;;0.92;73.34;96564.47;7385217;19;19935;-84
2022/12/14 10:00:35;;;;;;;;;;;;;;;0.86;73.77;96557.22;7379679;19;19918;-84
2022/12/14 10:03:08;;;;;;;;;;;;;;;0.86;73.77;96560.66;7389412;19;20001;-84
2022/12/14 10:05:41;;;;;;;;;;;;;;;0.79;73.59;96559.59;7382347;19;19978;-84
2022/12/14 10:08:20;;;;;;;;;;;;;;;0.84;73.21;96557.38;7388475;19;19927;-85
2022/12/14 10:10:49;;;;;;;;;;;;;;;0.90;73.23;96552.59;7385603;19;19939;-84
2022/12/14 10:13:21;;;;;;;;;;;;;;;0.65;74.23;96563.41;7380525;19;20533;-84
2022/12/14 10:16:11;;;;;;;;;;;;;;;0.86;74.07;96562.44;7382419;19;19919;-83
2022/12/14 10:18:40;;;;;;;;;;;;;;;0.95;74.29;96560.78;7380846;19;19923;-84
2022/12/14 10:21:27;;;;;;;;;;;;;;;0.81;74.59;96557.66;7388078;19;19922;-85
2022/12/14 10:23:57;;;;;;;;;;;;;;;0.75;74.71;96555.59;7384071;19;19959;-85
2022/12/14 10:26:50;;;;;;;;;;;;;;;0.76;74.70;96541.63;7385807;19;19926;-85
2022/12/14 10:29:19;;;;;;;;;;;;;;;0.84;74.73;96541.78;7388452;19;19922;-85
2022/12/14 10:32:06;;;;;;;;;;;;;;;0.89;74.93;96533.50;7391373;19;19951;-84
2022/12/14 10:34:33;;;;;;;;;;;;;;;0.88;75.21;96529.28;7387352;19;20452;-84
2022/12/14 10:37:00;;;;;;;;;;;;;;;0.95;74.80;96522.56;7385777;19;20270;-84
2022/12/14 10:39:47;;;;;;;;;;;;;;;0.87;74.84;96522.44;7386382;19;19919;-85
2022/12/14 10:42:33;;;;;;;;;;;;;;;0.99;74.65;96531.72;7388402;19;19927;-84
2022/12/14 10:45:20;;;;;;;;;;;;;;;0.96;74.75;96528.59;7386126;19;19930;-84
2022/12/14 10:48:26;;;;;;;;;;;;;;;1.06;74.90;96513.75;7389466;19;19923;-84
2022/12/14 10:51:07;;;;;;;;;;;;;;;1.17;74.48;96516.16;7389507;19;19935;-85
2022/12/14 10:53:38;;;;;;;;;;;;;;;1.16;75.00;96508.50;7388791;19;19915;-84
2022/12/14 10:56:09;;;;;;;;;;;;;;;1.30;74.06;96500.22;7390489;19;19915;-85
2022/12/14 10:58:36;;;;;;;;;;;;;;;1.24;73.78;96504.22;7388374;19;19923;-84
2022/12/14 11:01:02;;;;;;;;;;;;;;;1.23;74.07;96515.59;7391067;19;19972;-85
2022/12/14 11:03:29;;;;;;;;;;;;;;;1.34;73.78;96519.78;7392493;19;20659;-83
2022/12/14 11:06:01;;;;;;;;;;;;;;;1.42;73.30;96508.66;7389563;19;20348;-81
2022/12/14 11:08:40;;;;;;;;;;;;;;;1.53;73.13;96514.50;7390191;19;19937;-80
2022/12/14 11:11:14;;;;;;;;;;;;;;;1.59;73.12;96513.09;7388925;19;19942;-85
2022/12/14 11:14:08;;;;;;;;;;;;;;;1.58;73.38;96516.69;7393053;19;19922;-86
2022/12/14 11:16:35;;;;;;;;;;;;;;;1.48;74.13;96513.31;7394265;19;19923;-87
2022/12/14 11:19:04;;;;;;;;;;;;;;;1.54;73.62;96507.50;7394267;19;19926;-84
2022/12/14 11:21:35;;;;;;;;;;;;;;;1.57;73.09;96506.41;7394161;19;20274;-84
2022/12/14 11:24:02;;;;;;;;;;;;;;;1.22;74.09;96506.16;7396367;19;19915;-84
2022/12/14 11:26:36;;;;;;;;;;;;;;;1.37;74.23;96501.28;7390408;19;20270;-85
2022/12/14 11:29:04;;;;;;;;;;;;;;;1.45;73.98;96509.22;7389161;19;20168;-84
2022/12/14 11:31:32;;;;;;;;;;;;;;;1.54;73.78;96512.72;7389957;19;19922;-84
2022/12/14 11:33:59;;;;;;;;;;;;;;;1.60;73.48;96506.91;7392888;19;19914;-83
2022/12/14 11:36:27;;;;;;;;;;;;;;;1.57;73.05;96512.44;7391128;19;19933;-84
2022/12/14 11:38:57;;;;;;;;;;;;;;;1.69;72.83;96513.06;7394670;19;19922;-84
2022/12/14 11:41:25;;;;;;;;;;;;;;;1.49;73.31;96510.53;7394253;19;20345;-83
2022/12/14 11:44:05;;;;;;;;;;;;;;;1.61;73.38;96508.56;7383791;19;19930;-84
2022/12/14 11:46:41;;;;;;;;;;;;;;;1.68;73.24;96504.41;7391559;19;20729;-83
2022/12/14 11:49:21;;;;;;;;;;;;;;;1.60;73.59;96500.88;7394001;19;19986;-84
2022/12/14 11:52:03;;;;;;;;;;;;;;;1.69;73.26;96494.81;7396776;19;19926;-83
2022/12/14 11:54:30;;;;;;;;;;;;;;;1.69;73.24;96506.06;7381323;19;20239;-73
2022/12/14 11:57:00;;;;;;;;;;;;;;;1.78;73.07;96508.75;7385746;19;19944;-73
2022/12/14 11:59:28;;;;;;;;;;;;;;;1.70;73.23;96501.66;7386221;19;19947;-73
2022/12/14 12:01:55;;;;;;;;;;;;;;;1.92;72.62;96505.63;7386247;19;20344;-73
2022/12/14 12:04:22;;;;;;;;;;;;;;;1.83;72.96;96507.34;7390601;19;19994;-72
2022/12/14 12:06:48;;;;;;;;;;;;;;;1.81;73.02;96491.00;7389295;19;19919;-73
2022/12/14 12:09:26;;;;;;;;;;;;;;;1.70;73.52;96489.44;7391149;19;19950;-73
2022/12/14 12:11:52;;;;;;;;;;;;;;;1.82;73.19;96495.28;7389903;19;19930;-73
2022/12/14 12:14:28;;;;;;;;;;;;;;;1.97;73.00;96499.03;7385385;19;20382;-73
2022/12/14 12:16:55;;;;;;;;;;;;;;;2.12;72.78;96501.91;7388837;19;20505;-73
2022/12/14 12:19:23;;;;;;;;;;;;;;;2.13;72.52;96505.34;7390021;19;19927;-74
2022/12/14 12:21:50;;;;;;;;;;;;;;;2.11;72.21;96515.94;7387508;19;19957;-74
2022/12/14 12:24:33;;;;;;;;;;;;;;;2.08;72.47;96511.03;7387490;19;19936;-74
2022/12/14 12:27:01;;;;;;;;;;;;;;;2.24;72.18;96510.34;7387736;19;19918;-74
2022/12/14 12:29:35;;;;;;;;;;;;;;;2.37;71.75;96504.72;7381245;19;19939;-74
2022/12/14 12:32:21;;;;;;;;;;;;;;;2.36;71.35;96503.91;7385317;19;19930;-74
2022/12/14 12:34:56;;;;;;;;;;;;;;;2.18;71.52;96498.69;7378218;19;19923;-73
2022/12/14 12:37:41;;;;;;;;;;;;;;;2.18;71.98;96510.94;7381980;19;20354;-74
2022/12/14 12:40:18;;;;;;;;;;;;;;;2.19;71.93;96513.41;7386026;19;19943;-73
2022/12/14 12:42:47;;;;;;;;;;;;;;;1.93;72.77;96517.72;7383786;19;20295;-75
2022/12/14 12:45:15;;;;;;;;;;;;;;;1.96;72.83;96517.41;7386899;19;19938;-74
2022/12/14 12:48:08;;;;;;;;;;;;;;;1.99;72.84;96504.06;7388438;19;19932;-75
2022/12/14 12:50:35;;;;;;;;;;;;;;;1.97;73.13;96506.00;7387412;19;20549;-74
2022/12/14 12:53:09;;;;;;;;;;;;;;;1.81;73.62;96519.69;7388529;19;19915;-73
2022/12/14 12:55:39;;;;;;;;;;;;;;;1.74;73.19;96523.88;7384749;19;19915;-74
2022/12/14 12:58:08;;;;;;;;;;;;;;;1.62;73.70;96515.41;7392405;19;19915;-73
2022/12/14 13:00:35;;;;;;;;;;;;;;;1.71;73.64;96522.38;7389352;19;20355;-74
2022/12/14 13:03:05;;;;;;;;;;;;;;;1.67;73.73;96528.84;7394705;19;19943;-74
2022/12/14 13:05:31;;;;;;;;;;;;;;;1.64;73.98;96534.34;7389504;19;19943;-73
2022/12/14 13:08:27;;;;;;;;;;;;;;;1.64;74.19;96538.75;7391539;19;19991;-73
2022/12/14 13:10:55;;;;;;;;;;;;;;;1.66;74.09;96540.25;7392697;19;19930;-74
2022/12/14 13:13:43;;;;;;;;;;;;;;;1.61;74.21;96552.88;7392588;19;19922;-74
2022/12/14 13:16:42;;;;;;;;;;;;;;;1.48;74.63;96555.81;7393207;19;19919;-73